createdAt,value
2022-08-16T00:05:06.197Z,100.00
2022-08-16T00:10:20.752Z,100.00
2022-08-16T00:15:51.600Z,100.00
2022-08-16T00:21:09.374Z,100.00
2022-08-16T00:26:35.576Z,100.00
2022-08-16T00:32:01.025Z,100.00
2022-08-16T00:37:16.999Z,100.00
2022-08-16T00:42:30.411Z,100.00
2022-08-16T00:47:40.366Z,100.00
2022-08-16T00:52:51.066Z,100.00
2022-08-16T00:58:00.745Z,100.00
2022-08-16T01:03:30.083Z,100.00
2022-08-16T01:08:39.319Z,100.00
2022-08-16T01:13:50.991Z,100.00
2022-08-16T01:19:20.992Z,100.00
2022-08-16T01:24:56.085Z,100.00
2022-08-16T01:30:27.569Z,100.00
2022-08-16T01:35:42.932Z,100.00
2022-08-16T01:40:52.458Z,100.00
2022-08-16T01:46:29.332Z,100.00
2022-08-16T01:51:46.693Z,100.00
2022-08-16T01:56:52.242Z,100.00
2022-08-16T02:02:01.645Z,100.00
2022-08-16T02:07:14.340Z,100.00
2022-08-16T02:12:40.096Z,100.00
2022-08-16T02:18:02.400Z,100.00
2022-08-16T02:23:08.366Z,100.00
2022-08-16T02:28:25.841Z,100.00
2022-08-16T02:33:43.704Z,100.00
2022-08-16T02:38:51.294Z,100.00
2022-08-16T02:44:05.089Z,100.00
2022-08-16T02:49:58.684Z,100.00
2022-08-16T02:54:56.239Z,100.00
2022-08-16T03:00:34.046Z,100.00
2022-08-16T03:05:52.336Z,100.00
2022-08-16T03:11:02.775Z,100.00
2022-08-16T03:16:38.249Z,100.00
2022-08-16T03:21:51.848Z,100.00
2022-08-16T03:27:02.891Z,100.00
2022-08-16T03:32:36.107Z,100.00
2022-08-16T03:38:34.069Z,100.00
2022-08-16T03:43:52.514Z,100.00
2022-08-16T03:49:13.609Z,100.00
2022-08-16T03:54:23.962Z,100.00
2022-08-16T03:59:44.781Z,100.00
2022-08-16T04:04:53.984Z,100.00
2022-08-16T04:10:35.839Z,100.00
2022-08-16T04:15:37.938Z,100.00
2022-08-16T04:20:56.434Z,100.00
2022-08-16T04:26:16.620Z,100.00
2022-08-16T04:31:40.453Z,100.00
2022-08-16T04:37:04.042Z,100.00
2022-08-16T04:42:15.293Z,100.00
2022-08-16T04:47:44.799Z,100.00
2022-08-16T04:53:07.054Z,100.00
2022-08-16T04:58:44.624Z,100.00
2022-08-16T05:04:00.809Z,100.00
2022-08-16T05:09:14.248Z,100.00
2022-08-16T05:14:45.694Z,100.00
2022-08-16T05:19:57.213Z,100.00
2022-08-16T05:25:09.067Z,100.00
2022-08-16T05:30:35.514Z,97.61
2022-08-16T05:36:03.847Z,92.87
2022-08-16T05:41:32.549Z,84.13
2022-08-16T05:46:43.894Z,70.90
2022-08-16T05:51:54.660Z,60.91
2022-08-16T05:57:22.288Z,52.85
2022-08-16T06:02:35.332Z,49.02
2022-08-16T06:07:46.502Z,46.01
2022-08-16T06:13:55.354Z,41.49
2022-08-16T06:19:07.990Z,39.50
2022-08-16T06:24:55.139Z,37.69
2022-08-16T06:29:54.962Z,35.35
2022-08-16T06:35:06.136Z,37.90
2022-08-16T06:40:15.935Z,37.48
2022-08-16T06:45:33.238Z,38.47
2022-08-16T06:50:51.026Z,34.48
2022-08-16T06:56:23.415Z,32.48
2022-08-16T07:01:46.341Z,31.04
2022-08-16T07:07:03.951Z,30.61
2022-08-16T07:12:10.738Z,29.97
2022-08-16T07:17:50.081Z,30.89
2022-08-16T07:23:13.332Z,33.67
2022-08-16T07:28:44.040Z,35.13
2022-08-16T07:33:55.667Z,35.43
2022-08-16T07:39:09.599Z,36.36
2022-08-16T07:44:50.726Z,35.80
2022-08-16T07:50:57.382Z,37.03
2022-08-16T07:56:14.734Z,38.28
2022-08-16T08:01:28.190Z,39.29
2022-08-16T08:06:40.067Z,38.13
2022-08-16T08:11:59.911Z,40.71
2022-08-16T08:17:18.655Z,41.25
2022-08-16T08:22:44.108Z,41.39
2022-08-16T08:27:57.748Z,42.78
2022-08-16T08:33:15.831Z,41.73
2022-08-16T08:38:43.569Z,41.88
2022-08-16T08:43:50.498Z,43.94
2022-08-16T08:49:06.883Z,42.30
2022-08-16T08:54:46.014Z,42.61
2022-08-16T09:00:00.695Z,44.01
2022-08-16T09:05:15.611Z,43.81
2022-08-16T09:10:24.356Z,44.24
2022-08-16T09:15:55.046Z,44.87
2022-08-16T09:21:02.018Z,45.91
2022-08-16T09:26:44.192Z,44.80
2022-08-16T09:31:56.845Z,45.94
2022-08-16T09:37:03.594Z,45.62
2022-08-16T09:42:55.924Z,44.83
2022-08-16T09:48:09.351Z,45.40
2022-08-16T09:53:16.866Z,44.43
2022-08-16T09:58:41.759Z,44.74
2022-08-16T10:04:02.293Z,45.12
2022-08-16T10:09:18.348Z,44.43
2022-08-16T10:14:32.877Z,42.92
2022-08-16T10:19:44.201Z,43.32
2022-08-16T10:24:56.037Z,41.28
2022-08-16T10:30:24.692Z,41.31
2022-08-16T10:35:46.575Z,41.08
2022-08-16T10:41:07.044Z,41.15
2022-08-16T10:46:33.781Z,39.61
2022-08-16T10:52:03.407Z,39.58
2022-08-16T10:57:37.855Z,40.47
2022-08-16T11:02:58.198Z,40.77
2022-08-16T11:08:10.337Z,39.65
2022-08-16T11:19:06.250Z,40.20
2022-08-16T11:24:40.238Z,40.35
2022-08-16T11:29:49.269Z,40.35
2022-08-16T11:35:10.762Z,39.41
2022-08-16T11:40:19.532Z,38.74
2022-08-16T11:45:26.115Z,38.97
2022-08-16T11:50:39.723Z,39.40
2022-08-16T11:55:54.855Z,38.75
2022-08-16T12:01:02.858Z,38.66
2022-08-16T12:06:30.666Z,37.52
2022-08-16T12:11:43.781Z,37.63
2022-08-16T12:17:24.732Z,37.64
2022-08-16T12:22:49.104Z,37.60
2022-08-16T12:27:55.748Z,38.34
2022-08-16T12:33:09.319Z,37.09
2022-08-16T12:38:41.319Z,37.25
2022-08-16T12:44:11.948Z,37.60
2022-08-16T12:49:41.812Z,36.96
2022-08-16T12:54:58.000Z,36.89
2022-08-16T13:00:09.076Z,37.60
2022-08-16T13:05:21.271Z,37.38
2022-08-16T13:10:47.083Z,37.19
2022-08-16T13:16:15.418Z,37.54
2022-08-16T13:21:31.956Z,36.87
2022-08-16T13:26:54.293Z,37.61
2022-08-16T13:32:39.755Z,37.66
2022-08-16T13:37:41.307Z,37.63
2022-08-16T13:42:48.005Z,37.38
2022-08-16T13:48:06.587Z,37.43
2022-08-16T13:53:18.842Z,36.96
2022-08-16T13:58:50.525Z,36.48
2022-08-16T14:04:02.860Z,36.21
2022-08-16T14:09:14.275Z,36.54
2022-08-16T14:14:32.002Z,37.10
2022-08-16T14:25:34.062Z,36.97
2022-08-16T14:30:44.887Z,36.82
2022-08-16T14:36:05.027Z,37.90
2022-08-16T14:41:27.589Z,37.32
2022-08-16T14:46:36.843Z,36.79
2022-08-16T14:52:02.702Z,37.38
2022-08-16T14:57:31.820Z,38.00
2022-08-16T15:02:55.997Z,38.39
2022-08-16T15:13:27.110Z,37.94
2022-08-16T15:18:41.295Z,38.25
2022-08-16T15:24:16.506Z,37.46
2022-08-16T15:29:53.293Z,37.38
2022-08-16T15:35:17.125Z,37.27
2022-08-16T15:40:56.671Z,37.89
2022-08-16T15:46:54.639Z,38.38
2022-08-16T15:52:10.723Z,37.84
2022-08-16T15:57:19.984Z,38.58
2022-08-16T16:02:31.796Z,38.10
2022-08-16T16:07:56.242Z,38.22
2022-08-16T16:13:03.919Z,37.98
2022-08-16T16:18:11.008Z,38.15
2022-08-16T16:23:34.565Z,37.95
2022-08-16T16:29:07.490Z,37.82
2022-08-16T16:34:17.526Z,38.24
2022-08-16T16:39:33.789Z,38.66
2022-08-16T16:44:50.755Z,38.79
2022-08-16T16:49:57.704Z,39.27
2022-08-16T16:55:17.002Z,39.54
2022-08-16T17:00:25.998Z,39.00
2022-08-16T17:05:54.102Z,39.40
2022-08-16T17:11:08.122Z,39.55
2022-08-16T17:16:18.621Z,40.17
2022-08-16T17:21:27.748Z,39.64
2022-08-16T17:26:48.953Z,40.39
2022-08-16T17:31:53.519Z,39.62
2022-08-16T17:37:09.921Z,40.71
2022-08-16T17:42:30.281Z,39.95
2022-08-16T17:47:42.763Z,41.00
2022-08-16T17:52:52.623Z,41.13
2022-08-16T17:58:22.797Z,41.83
2022-08-16T18:04:06.866Z,41.08
2022-08-16T18:09:03.951Z,41.56
2022-08-16T18:25:20.794Z,43.05
2022-08-16T18:30:35.047Z,43.33
2022-08-16T18:35:57.843Z,44.28
2022-08-16T18:41:05.741Z,43.91
2022-08-16T18:46:19.581Z,45.15
2022-08-16T18:51:40.276Z,45.41
2022-08-16T18:56:57.015Z,46.10
2022-08-16T19:02:06.153Z,46.80
2022-08-16T19:07:15.443Z,47.31
2022-08-16T19:12:37.930Z,47.31
2022-08-16T19:18:18.038Z,47.81
2022-08-16T19:23:37.235Z,48.44
2022-08-16T19:28:58.929Z,49.04
2022-08-16T19:34:18.315Z,48.96
2022-08-16T19:39:35.354Z,49.32
2022-08-16T19:44:42.716Z,49.68
2022-08-16T19:49:50.046Z,50.16
2022-08-16T19:55:04.925Z,50.78
2022-08-16T20:00:22.259Z,50.82
2022-08-16T20:06:03.552Z,51.42
2022-08-16T20:11:38.705Z,51.49
2022-08-16T20:16:59.528Z,52.02
2022-08-16T20:22:42.105Z,52.40
2022-08-16T20:27:56.722Z,52.42
2022-08-16T20:33:13.567Z,52.05
2022-08-16T20:38:27.401Z,52.49
2022-08-16T20:43:37.222Z,53.00
2022-08-16T20:48:42.685Z,52.82
2022-08-16T20:54:12.876Z,53.77
2022-08-16T20:59:26.889Z,54.55
2022-08-16T21:04:37.151Z,54.77
2022-08-16T21:09:46.074Z,55.03
2022-08-16T21:15:12.972Z,55.78
2022-08-16T21:20:38.889Z,55.90
2022-08-16T21:25:58.332Z,56.41
2022-08-16T21:31:08.817Z,56.83
2022-08-16T21:36:34.963Z,57.37
2022-08-16T21:41:49.694Z,58.09
2022-08-16T21:47:08.678Z,58.37
2022-08-16T21:52:29.256Z,59.45
2022-08-16T21:58:07.815Z,59.16
2022-08-16T22:03:15.436Z,59.18
2022-08-16T22:08:28.834Z,60.04
2022-08-16T22:13:49.259Z,60.92
2022-08-16T22:19:16.001Z,60.82
2022-08-16T22:24:30.441Z,61.48
2022-08-16T22:29:44.835Z,61.90
2022-08-16T22:34:55.662Z,62.03
2022-08-16T22:40:05.921Z,62.03
2022-08-16T22:45:25.465Z,63.18
2022-08-16T22:50:33.450Z,62.99
2022-08-16T22:55:45.489Z,63.59
2022-08-16T23:01:28.269Z,64.34
2022-08-16T23:06:38.604Z,64.08
2022-08-16T23:12:11.590Z,64.64
2022-08-16T23:17:41.936Z,65.24
2022-08-16T23:23:19.955Z,65.02
2022-08-16T23:28:36.039Z,65.61
2022-08-16T23:33:51.037Z,66.24
2022-08-16T23:39:07.684Z,66.04
2022-08-16T23:44:58.533Z,66.73
2022-08-16T23:55:20.004Z,67.57
